Aviation Digital Data Service (ADDS)

Output produced by METARs form (2148 UTC 21 May 2022)
found at http://www.aviationweather.gov/metar/data/
 
UTDD 212130Z VRB02MPS 9999 FEW066CB BKN110 19/11 Q1008 R09/D TEMPO 27009G14MPS TS RMK QFE688/0918
TAF UTDD 212100Z 2122/2210 27005MPS 3100 HZ SCT011 BKN040CB 
     TEMPO 2122/2210 29009G14MPS 1000 -TSRA HZ
       
UTDL 212130Z 26008G14MPS 9999 SCT060CB OVC086 19/11 Q1013 R26/CLRD70 NOSIG RMK QFE722/0963
TAF UTDL 212100Z 2122/2210 24010MPS 6000 BKN040CB OVC080 
     TEMPO 2122/2210 26012G17MPS 3100 -TSRA BR SCT011 OVC030CB